sensor_id;sensor_type;location;lat;lon;timestamp;P1;durP1;ratioP1;P2;durP2;ratioP2
74170;SDS011;62526;50.948;6.590;2023-04-25T00:02:20;17.47;;;5.53;;
74170;SDS011;62526;50.948;6.590;2023-04-25T00:04:47;15.30;;;4.73;;
74170;SDS011;62526;50.948;6.590;2023-04-25T00:07:13;13.43;;;5.13;;
74170;SDS011;62526;50.948;6.590;2023-04-25T00:09:41;14.27;;;4.53;;
74170;SDS011;62526;50.948;6.590;2023-04-25T00:12:07;15.57;;;5.30;;
74170;SDS011;62526;50.948;6.590;2023-04-25T00:14:33;15.20;;;5.47;;
74170;SDS011;62526;50.948;6.590;2023-04-25T00:17:00;11.50;;;4.90;;
74170;SDS011;62526;50.948;6.590;2023-04-25T00:19:26;16.13;;;4.60;;
74170;SDS011;62526;50.948;6.590;2023-04-25T00:21:54;12.83;;;4.70;;
74170;SDS011;62526;50.948;6.590;2023-04-25T00:24:20;16.70;;;5.07;;
74170;SDS011;62526;50.948;6.590;2023-04-25T00:26:47;14.50;;;4.83;;
74170;SDS011;62526;50.948;6.590;2023-04-25T00:29:14;14.37;;;5.00;;
74170;SDS011;62526;50.948;6.590;2023-04-25T00:31:40;14.07;;;5.57;;
74170;SDS011;62526;50.948;6.590;2023-04-25T00:34:07;15.03;;;5.23;;
74170;SDS011;62526;50.948;6.590;2023-04-25T00:36:33;16.40;;;5.57;;
74170;SDS011;62526;50.948;6.590;2023-04-25T00:39:00;8.87;;;4.73;;
74170;SDS011;62526;50.948;6.590;2023-04-25T00:41:27;14.97;;;4.73;;
74170;SDS011;62526;50.948;6.590;2023-04-25T00:43:53;16.67;;;5.13;;
74170;SDS011;62526;50.948;6.590;2023-04-25T00:46:20;16.23;;;5.10;;
74170;SDS011;62526;50.948;6.590;2023-04-25T00:48:46;14.73;;;5.43;;
74170;SDS011;62526;50.948;6.590;2023-04-25T00:51:13;10.33;;;4.70;;
74170;SDS011;62526;50.948;6.590;2023-04-25T00:53:40;12.47;;;4.47;;
74170;SDS011;62526;50.948;6.590;2023-04-25T00:56:06;11.07;;;5.27;;
74170;SDS011;62526;50.948;6.590;2023-04-25T00:58:33;10.83;;;4.10;;
74170;SDS011;62526;50.948;6.590;2023-04-25T01:00:59;15.63;;;4.73;;
74170;SDS011;62526;50.948;6.590;2023-04-25T01:03:26;16.03;;;4.77;;
74170;SDS011;62526;50.948;6.590;2023-04-25T01:05:53;11.33;;;4.97;;
74170;SDS011;62526;50.948;6.590;2023-04-25T01:08:21;15.27;;;5.60;;
74170;SDS011;62526;50.948;6.590;2023-04-25T01:10:46;19.80;;;5.80;;
74170;SDS011;62526;50.948;6.590;2023-04-25T01:13:12;10.80;;;5.00;;
74170;SDS011;62526;50.948;6.590;2023-04-25T01:15:39;9.43;;;4.47;;
74170;SDS011;62526;50.948;6.590;2023-04-25T01:18:06;17.53;;;4.63;;
74170;SDS011;62526;50.948;6.590;2023-04-25T01:20:32;13.87;;;4.73;;
74170;SDS011;62526;50.948;6.590;2023-04-25T01:22:59;15.50;;;5.47;;
74170;SDS011;62526;50.948;6.590;2023-04-25T01:25:25;15.77;;;5.17;;
74170;SDS011;62526;50.948;6.590;2023-04-25T01:27:52;14.97;;;5.30;;
74170;SDS011;62526;50.948;6.590;2023-04-25T01:30:19;18.17;;;5.83;;
74170;SDS011;62526;50.948;6.590;2023-04-25T01:32:45;11.43;;;5.77;;
74170;SDS011;62526;50.948;6.590;2023-04-25T01:35:12;15.47;;;5.03;;
74170;SDS011;62526;50.948;6.590;2023-04-25T01:37:40;13.67;;;5.50;;
74170;SDS011;62526;50.948;6.590;2023-04-25T01:40:06;16.67;;;5.07;;
74170;SDS011;62526;50.948;6.590;2023-04-25T01:42:33;15.60;;;5.53;;
74170;SDS011;62526;50.948;6.590;2023-04-25T01:45:00;16.50;;;5.50;;
74170;SDS011;62526;50.948;6.590;2023-04-25T01:47:26;15.53;;;4.90;;
74170;SDS011;62526;50.948;6.590;2023-04-25T01:49:53;11.27;;;5.03;;
74170;SDS011;62526;50.948;6.590;2023-04-25T01:52:19;11.93;;;4.80;;
74170;SDS011;62526;50.948;6.590;2023-04-25T01:54:46;12.33;;;4.90;;
74170;SDS011;62526;50.948;6.590;2023-04-25T01:57:13;15.03;;;6.53;;
74170;SDS011;62526;50.948;6.590;2023-04-25T01:59:39;12.40;;;5.33;;
74170;SDS011;62526;50.948;6.590;2023-04-25T02:02:06;19.83;;;5.30;;
74170;SDS011;62526;50.948;6.590;2023-04-25T02:04:32;13.17;;;5.43;;
74170;SDS011;62526;50.948;6.590;2023-04-25T02:06:59;10.67;;;5.20;;
74170;SDS011;62526;50.948;6.590;2023-04-25T02:09:26;11.37;;;6.20;;
74170;SDS011;62526;50.948;6.590;2023-04-25T02:11:52;14.07;;;5.83;;
74170;SDS011;62526;50.948;6.590;2023-04-25T02:14:19;11.97;;;5.10;;
74170;SDS011;62526;50.948;6.590;2023-04-25T02:16:46;20.37;;;6.67;;
74170;SDS011;62526;50.948;6.590;2023-04-25T02:19:12;12.73;;;5.10;;
74170;SDS011;62526;50.948;6.590;2023-04-25T02:21:39;17.53;;;5.80;;
74170;SDS011;62526;50.948;6.590;2023-04-25T02:24:05;18.10;;;4.77;;
74170;SDS011;62526;50.948;6.590;2023-04-25T02:26:32;12.37;;;5.40;;
74170;SDS011;62526;50.948;6.590;2023-04-25T02:28:59;20.37;;;6.20;;
74170;SDS011;62526;50.948;6.590;2023-04-25T02:31:26;13.60;;;5.90;;
74170;SDS011;62526;50.948;6.590;2023-04-25T02:33:52;16.43;;;6.30;;
74170;SDS011;62526;50.948;6.590;2023-04-25T02:36:19;16.33;;;6.23;;
74170;SDS011;62526;50.948;6.590;2023-04-25T02:38:45;16.93;;;6.33;;
74170;SDS011;62526;50.948;6.590;2023-04-25T02:41:12;13.17;;;5.40;;
74170;SDS011;62526;50.948;6.590;2023-04-25T02:43:39;15.03;;;6.33;;
74170;SDS011;62526;50.948;6.590;2023-04-25T02:46:05;14.20;;;6.00;;
74170;SDS011;62526;50.948;6.590;2023-04-25T02:48:32;16.70;;;6.63;;
74170;SDS011;62526;50.948;6.590;2023-04-25T02:50:58;11.53;;;5.47;;
74170;SDS011;62526;50.948;6.590;2023-04-25T02:53:25;12.47;;;6.70;;
74170;SDS011;62526;50.948;6.590;2023-04-25T02:55:52;17.77;;;6.73;;
74170;SDS011;62526;50.948;6.590;2023-04-25T02:58:18;20.90;;;5.97;;
74170;SDS011;62526;50.948;6.590;2023-04-25T03:00:45;19.57;;;6.50;;
74170;SDS011;62526;50.948;6.590;2023-04-25T03:03:11;17.37;;;6.03;;
74170;SDS011;62526;50.948;6.590;2023-04-25T03:05:38;16.53;;;5.27;;
74170;SDS011;62526;50.948;6.590;2023-04-25T03:08:05;19.80;;;6.60;;
74170;SDS011;62526;50.948;6.590;2023-04-25T03:10:31;13.57;;;6.10;;
74170;SDS011;62526;50.948;6.590;2023-04-25T03:12:58;20.33;;;6.60;;
74170;SDS011;62526;50.948;6.590;2023-04-25T03:15:24;14.60;;;6.60;;
74170;SDS011;62526;50.948;6.590;2023-04-25T03:17:51;17.53;;;6.97;;
74170;SDS011;62526;50.948;6.590;2023-04-25T03:20:18;19.87;;;6.27;;
74170;SDS011;62526;50.948;6.590;2023-04-25T03:22:44;16.03;;;6.30;;
74170;SDS011;62526;50.948;6.590;2023-04-25T03:25:11;14.27;;;7.87;;
74170;SDS011;62526;50.948;6.590;2023-04-25T03:27:37;14.93;;;6.47;;
74170;SDS011;62526;50.948;6.590;2023-04-25T03:30:05;21.83;;;7.63;;
74170;SDS011;62526;50.948;6.590;2023-04-25T03:32:32;13.90;;;6.67;;
74170;SDS011;62526;50.948;6.590;2023-04-25T03:34:59;19.37;;;6.93;;
74170;SDS011;62526;50.948;6.590;2023-04-25T03:37:25;16.77;;;7.70;;
74170;SDS011;62526;50.948;6.590;2023-04-25T03:39:52;22.87;;;6.70;;
74170;SDS011;62526;50.948;6.590;2023-04-25T03:42:18;21.23;;;6.90;;
74170;SDS011;62526;50.948;6.590;2023-04-25T03:44:45;12.23;;;5.07;;
74170;SDS011;62526;50.948;6.590;2023-04-25T03:47:11;14.10;;;6.33;;
74170;SDS011;62526;50.948;6.590;2023-04-25T03:49:38;11.67;;;4.97;;
74170;SDS011;62526;50.948;6.590;2023-04-25T03:52:05;15.93;;;5.73;;
74170;SDS011;62526;50.948;6.590;2023-04-25T03:54:31;13.37;;;5.60;;
74170;SDS011;62526;50.948;6.590;2023-04-25T03:56:58;15.30;;;6.63;;
74170;SDS011;62526;50.948;6.590;2023-04-25T03:59:25;13.03;;;6.03;;
74170;SDS011;62526;50.948;6.590;2023-04-25T04:01:51;14.90;;;6.40;;
74170;SDS011;62526;50.948;6.590;2023-04-25T04:04:18;15.17;;;5.83;;
74170;SDS011;62526;50.948;6.590;2023-04-25T04:06:44;17.37;;;7.27;;
74170;SDS011;62526;50.948;6.590;2023-04-25T04:09:11;21.00;;;6.87;;
74170;SDS011;62526;50.948;6.590;2023-04-25T04:11:38;20.40;;;6.57;;
74170;SDS011;62526;50.948;6.590;2023-04-25T04:14:05;17.00;;;6.27;;
74170;SDS011;62526;50.948;6.590;2023-04-25T04:16:32;21.97;;;7.10;;
74170;SDS011;62526;50.948;6.590;2023-04-25T04:18:58;9.97;;;5.50;;
74170;SDS011;62526;50.948;6.590;2023-04-25T04:21:25;11.70;;;5.80;;
74170;SDS011;62526;50.948;6.590;2023-04-25T04:23:52;14.20;;;7.43;;
74170;SDS011;62526;50.948;6.590;2023-04-25T04:26:18;16.07;;;6.60;;
74170;SDS011;62526;50.948;6.590;2023-04-25T04:28:45;15.63;;;6.70;;
74170;SDS011;62526;50.948;6.590;2023-04-25T04:31:11;14.50;;;6.37;;
74170;SDS011;62526;50.948;6.590;2023-04-25T04:33:38;10.87;;;5.57;;
74170;SDS011;62526;50.948;6.590;2023-04-25T04:36:05;21.57;;;5.73;;
74170;SDS011;62526;50.948;6.590;2023-04-25T04:38:32;17.50;;;5.63;;
74170;SDS011;62526;50.948;6.590;2023-04-25T04:40:58;13.43;;;5.40;;
74170;SDS011;62526;50.948;6.590;2023-04-25T04:43:25;17.10;;;6.67;;
74170;SDS011;62526;50.948;6.590;2023-04-25T04:45:51;14.30;;;5.90;;
74170;SDS011;62526;50.948;6.590;2023-04-25T04:48:18;15.10;;;6.97;;
74170;SDS011;62526;50.948;6.590;2023-04-25T04:50:45;14.50;;;5.73;;
74170;SDS011;62526;50.948;6.590;2023-04-25T04:53:11;14.73;;;6.17;;
74170;SDS011;62526;50.948;6.590;2023-04-25T04:55:38;17.57;;;5.63;;
74170;SDS011;62526;50.948;6.590;2023-04-25T04:58:05;14.90;;;5.17;;
74170;SDS011;62526;50.948;6.590;2023-04-25T05:00:31;23.40;;;6.00;;
74170;SDS011;62526;50.948;6.590;2023-04-25T05:02:58;15.00;;;5.47;;
74170;SDS011;62526;50.948;6.590;2023-04-25T05:05:24;18.87;;;5.87;;
74170;SDS011;62526;50.948;6.590;2023-04-25T05:07:51;14.97;;;5.67;;
74170;SDS011;62526;50.948;6.590;2023-04-25T05:10:18;30.33;;;6.93;;
74170;SDS011;62526;50.948;6.590;2023-04-25T05:12:44;11.83;;;4.53;;
74170;SDS011;62526;50.948;6.590;2023-04-25T05:15:11;12.67;;;5.43;;
74170;SDS011;62526;50.948;6.590;2023-04-25T05:17:37;20.47;;;5.57;;
74170;SDS011;62526;50.948;6.590;2023-04-25T05:20:05;18.23;;;6.43;;
74170;SDS011;62526;50.948;6.590;2023-04-25T05:22:32;14.13;;;5.73;;
74170;SDS011;62526;50.948;6.590;2023-04-25T05:24:59;15.40;;;5.63;;
74170;SDS011;62526;50.948;6.590;2023-04-25T05:27:25;16.63;;;6.63;;
74170;SDS011;62526;50.948;6.590;2023-04-25T05:29:52;22.97;;;6.37;;
74170;SDS011;62526;50.948;6.590;2023-04-25T05:32:18;16.83;;;6.37;;
74170;SDS011;62526;50.948;6.590;2023-04-25T05:34:45;18.73;;;6.10;;
74170;SDS011;62526;50.948;6.590;2023-04-25T05:37:12;22.60;;;6.40;;
74170;SDS011;62526;50.948;6.590;2023-04-25T05:39:38;12.10;;;5.23;;
74170;SDS011;62526;50.948;6.590;2023-04-25T05:42:05;20.13;;;5.57;;
74170;SDS011;62526;50.948;6.590;2023-04-25T05:44:32;18.73;;;5.90;;
74170;SDS011;62526;50.948;6.590;2023-04-25T05:46:59;11.20;;;4.83;;
74170;SDS011;62526;50.948;6.590;2023-04-25T05:49:25;16.90;;;6.23;;
74170;SDS011;62526;50.948;6.590;2023-04-25T05:51:52;18.93;;;6.07;;
74170;SDS011;62526;50.948;6.590;2023-04-25T05:54:18;17.53;;;5.20;;
74170;SDS011;62526;50.948;6.590;2023-04-25T05:56:45;16.50;;;6.20;;
74170;SDS011;62526;50.948;6.590;2023-04-25T05:59:12;21.60;;;6.30;;
74170;SDS011;62526;50.948;6.590;2023-04-25T06:01:39;12.40;;;4.97;;
74170;SDS011;62526;50.948;6.590;2023-04-25T06:04:06;19.47;;;5.63;;
74170;SDS011;62526;50.948;6.590;2023-04-25T06:06:32;8.17;;;3.37;;
74170;SDS011;62526;50.948;6.590;2023-04-25T06:08:59;15.97;;;5.20;;
74170;SDS011;62526;50.948;6.590;2023-04-25T06:11:25;17.80;;;5.50;;
74170;SDS011;62526;50.948;6.590;2023-04-25T06:13:52;15.77;;;5.20;;
74170;SDS011;62526;50.948;6.590;2023-04-25T06:16:19;14.83;;;4.43;;
74170;SDS011;62526;50.948;6.590;2023-04-25T06:18:45;14.60;;;4.77;;
74170;SDS011;62526;50.948;6.590;2023-04-25T06:21:12;15.50;;;4.33;;
74170;SDS011;62526;50.948;6.590;2023-04-25T06:23:38;11.83;;;3.77;;
74170;SDS011;62526;50.948;6.590;2023-04-25T06:26:05;18.43;;;5.70;;
74170;SDS011;62526;50.948;6.590;2023-04-25T06:28:32;11.60;;;4.73;;
74170;SDS011;62526;50.948;6.590;2023-04-25T06:30:58;12.13;;;3.60;;
74170;SDS011;62526;50.948;6.590;2023-04-25T06:33:26;7.07;;;4.13;;
74170;SDS011;62526;50.948;6.590;2023-04-25T06:35:52;16.73;;;4.63;;
74170;SDS011;62526;50.948;6.590;2023-04-25T06:38:19;9.90;;;4.27;;
74170;SDS011;62526;50.948;6.590;2023-04-25T06:40:46;20.27;;;4.70;;
74170;SDS011;62526;50.948;6.590;2023-04-25T06:43:12;13.17;;;4.70;;
74170;SDS011;62526;50.948;6.590;2023-04-25T06:45:39;13.23;;;3.10;;
74170;SDS011;62526;50.948;6.590;2023-04-25T06:48:05;15.47;;;4.67;;
74170;SDS011;62526;50.948;6.590;2023-04-25T06:50:33;13.63;;;4.20;;
74170;SDS011;62526;50.948;6.590;2023-04-25T06:52:59;13.03;;;4.20;;
74170;SDS011;62526;50.948;6.590;2023-04-25T06:55:25;13.20;;;3.83;;
74170;SDS011;62526;50.948;6.590;2023-04-25T06:57:52;15.03;;;3.43;;
74170;SDS011;62526;50.948;6.590;2023-04-25T07:00:18;11.03;;;3.50;;
74170;SDS011;62526;50.948;6.590;2023-04-25T07:02:45;8.80;;;3.53;;
74170;SDS011;62526;50.948;6.590;2023-04-25T07:05:12;8.60;;;2.73;;
74170;SDS011;62526;50.948;6.590;2023-04-25T07:07:39;16.17;;;3.70;;
74170;SDS011;62526;50.948;6.590;2023-04-25T07:10:05;8.93;;;4.20;;
74170;SDS011;62526;50.948;6.590;2023-04-25T07:12:32;10.77;;;3.47;;
74170;SDS011;62526;50.948;6.590;2023-04-25T07:14:59;11.37;;;3.10;;
74170;SDS011;62526;50.948;6.590;2023-04-25T07:17:25;18.13;;;2.87;;
74170;SDS011;62526;50.948;6.590;2023-04-25T07:19:52;16.70;;;3.43;;
74170;SDS011;62526;50.948;6.590;2023-04-25T07:22:18;17.50;;;4.00;;
74170;SDS011;62526;50.948;6.590;2023-04-25T07:24:45;10.43;;;3.00;;
74170;SDS011;62526;50.948;6.590;2023-04-25T07:27:12;15.60;;;4.37;;
74170;SDS011;62526;50.948;6.590;2023-04-25T07:29:38;12.40;;;3.53;;
74170;SDS011;62526;50.948;6.590;2023-04-25T07:32:05;11.63;;;3.30;;
74170;SDS011;62526;50.948;6.590;2023-04-25T07:34:31;9.67;;;3.10;;
74170;SDS011;62526;50.948;6.590;2023-04-25T07:36:58;14.97;;;3.93;;
74170;SDS011;62526;50.948;6.590;2023-04-25T07:39:25;11.30;;;3.50;;
74170;SDS011;62526;50.948;6.590;2023-04-25T07:41:51;16.40;;;4.10;;
74170;SDS011;62526;50.948;6.590;2023-04-25T07:44:18;16.13;;;4.37;;
74170;SDS011;62526;50.948;6.590;2023-04-25T07:46:44;14.73;;;4.40;;
74170;SDS011;62526;50.948;6.590;2023-04-25T07:49:11;15.00;;;4.03;;
74170;SDS011;62526;50.948;6.590;2023-04-25T07:51:38;14.60;;;3.80;;
74170;SDS011;62526;50.948;6.590;2023-04-25T07:54:04;9.60;;;3.00;;
74170;SDS011;62526;50.948;6.590;2023-04-25T07:56:31;11.30;;;3.30;;
74170;SDS011;62526;50.948;6.590;2023-04-25T07:58:57;9.40;;;3.10;;
74170;SDS011;62526;50.948;6.590;2023-04-25T08:01:24;16.53;;;3.70;;
74170;SDS011;62526;50.948;6.590;2023-04-25T08:03:51;11.53;;;3.23;;
74170;SDS011;62526;50.948;6.590;2023-04-25T08:06:17;11.43;;;2.73;;
74170;SDS011;62526;50.948;6.590;2023-04-25T08:08:44;12.50;;;3.33;;
74170;SDS011;62526;50.948;6.590;2023-04-25T08:11:11;14.83;;;3.20;;
74170;SDS011;62526;50.948;6.590;2023-04-25T08:13:37;8.60;;;2.90;;
74170;SDS011;62526;50.948;6.590;2023-04-25T08:16:04;9.37;;;2.50;;
74170;SDS011;62526;50.948;6.590;2023-04-25T08:18:31;8.77;;;2.63;;
74170;SDS011;62526;50.948;6.590;2023-04-25T08:20:58;11.50;;;2.70;;
74170;SDS011;62526;50.948;6.590;2023-04-25T08:23:24;7.17;;;2.20;;
74170;SDS011;62526;50.948;6.590;2023-04-25T08:25:51;10.47;;;2.57;;
74170;SDS011;62526;50.948;6.590;2023-04-25T08:28:18;10.77;;;3.63;;
74170;SDS011;62526;50.948;6.590;2023-04-25T08:30:44;11.00;;;3.03;;
74170;SDS011;62526;50.948;6.590;2023-04-25T08:33:11;3.67;;;1.70;;
74170;SDS011;62526;50.948;6.590;2023-04-25T08:35:37;8.38;;;2.80;;
74170;SDS011;62526;50.948;6.590;2023-04-25T08:38:04;10.23;;;2.00;;
74170;SDS011;62526;50.948;6.590;2023-04-25T08:40:31;11.40;;;2.70;;
74170;SDS011;62526;50.948;6.590;2023-04-25T08:42:57;7.67;;;2.27;;
74170;SDS011;62526;50.948;6.590;2023-04-25T08:45:25;5.87;;;3.00;;
74170;SDS011;62526;50.948;6.590;2023-04-25T08:47:51;8.97;;;2.50;;
74170;SDS011;62526;50.948;6.590;2023-04-25T08:50:17;9.80;;;2.57;;
74170;SDS011;62526;50.948;6.590;2023-04-25T08:52:44;5.53;;;2.10;;
74170;SDS011;62526;50.948;6.590;2023-04-25T08:55:12;9.85;;;2.15;;
74170;SDS011;62526;50.948;6.590;2023-04-25T08:57:38;9.70;;;2.40;;
74170;SDS011;62526;50.948;6.590;2023-04-25T09:00:04;4.57;;;2.00;;
74170;SDS011;62526;50.948;6.590;2023-04-25T09:02:32;9.43;;;2.67;;
74170;SDS011;62526;50.948;6.590;2023-04-25T09:04:58;12.48;;;3.42;;
74170;SDS011;62526;50.948;6.590;2023-04-25T09:07:25;10.73;;;3.03;;
74170;SDS011;62526;50.948;6.590;2023-04-25T09:09:51;10.55;;;2.65;;
74170;SDS011;62526;50.948;6.590;2023-04-25T09:12:18;7.07;;;2.43;;
74170;SDS011;62526;50.948;6.590;2023-04-25T09:15:00;7.43;;;2.70;;
74170;SDS011;62526;50.948;6.590;2023-04-25T09:17:11;11.53;;;3.03;;
74170;SDS011;62526;50.948;6.590;2023-04-25T09:19:38;7.07;;;2.83;;
74170;SDS011;62526;50.948;6.590;2023-04-25T09:22:04;11.80;;;2.70;;
74170;SDS011;62526;50.948;6.590;2023-04-25T09:24:37;7.77;;;2.80;;
74170;SDS011;62526;50.948;6.590;2023-04-25T09:27:03;11.70;;;3.17;;
74170;SDS011;62526;50.948;6.590;2023-04-25T09:29:31;8.90;;;2.30;;
74170;SDS011;62526;50.948;6.590;2023-04-25T09:34:40;7.97;;;2.67;;
74170;SDS011;62526;50.948;6.590;2023-04-25T09:37:06;10.70;;;3.20;;
74170;SDS011;62526;50.948;6.590;2023-04-25T09:39:33;7.43;;;3.03;;
74170;SDS011;62526;50.948;6.590;2023-04-25T09:41:59;10.80;;;2.80;;
74170;SDS011;62526;50.948;6.590;2023-04-25T09:44:26;4.90;;;2.10;;
74170;SDS011;62526;50.948;6.590;2023-04-25T09:46:52;6.63;;;2.53;;
74170;SDS011;62526;50.948;6.590;2023-04-25T09:49:20;7.63;;;2.50;;
74170;SDS011;62526;50.948;6.590;2023-04-25T09:54:19;3.93;;;1.87;;
74170;SDS011;62526;50.948;6.590;2023-04-25T09:56:46;8.93;;;2.37;;
74170;SDS011;62526;50.948;6.590;2023-04-25T09:59:12;6.30;;;2.00;;
74170;SDS011;62526;50.948;6.590;2023-04-25T10:01:39;5.68;;;2.12;;
74170;SDS011;62526;50.948;6.590;2023-04-25T10:04:06;2.87;;;1.53;;
74170;SDS011;62526;50.948;6.590;2023-04-25T10:06:32;5.50;;;1.80;;
74170;SDS011;62526;50.948;6.590;2023-04-25T10:08:59;10.55;;;2.35;;
74170;SDS011;62526;50.948;6.590;2023-04-25T10:11:26;5.23;;;2.80;;
74170;SDS011;62526;50.948;6.590;2023-04-25T10:13:52;5.47;;;2.10;;
74170;SDS011;62526;50.948;6.590;2023-04-25T10:16:19;9.95;;;2.70;;
74170;SDS011;62526;50.948;6.590;2023-04-25T10:18:45;5.10;;;2.20;;
74170;SDS011;62526;50.948;6.590;2023-04-25T10:21:12;5.63;;;2.13;;
74170;SDS011;62526;50.948;6.590;2023-04-25T10:23:38;5.35;;;1.95;;
74170;SDS011;62526;50.948;6.590;2023-04-25T10:26:05;12.43;;;2.90;;
74170;SDS011;62526;50.948;6.590;2023-04-25T10:28:54;6.97;;;2.30;;
74170;SDS011;62526;50.948;6.590;2023-04-25T10:31:02;10.32;;;2.70;;
74170;SDS011;62526;50.948;6.590;2023-04-25T10:33:32;17.30;;;2.97;;
74170;SDS011;62526;50.948;6.590;2023-04-25T10:35:58;7.03;;;3.25;;
74170;SDS011;62526;50.948;6.590;2023-04-25T10:38:24;14.60;;;2.57;;
74170;SDS011;62526;50.948;6.590;2023-04-25T10:43:33;11.97;;;2.50;;
74170;SDS011;62526;50.948;6.590;2023-04-25T10:45:59;10.30;;;2.42;;
74170;SDS011;62526;50.948;6.590;2023-04-25T10:48:27;7.47;;;2.33;;
74170;SDS011;62526;50.948;6.590;2023-04-25T10:51:10;4.93;;;2.37;;
74170;SDS011;62526;50.948;6.590;2023-04-25T10:53:36;5.70;;;2.33;;
74170;SDS011;62526;50.948;6.590;2023-04-25T10:58:41;4.30;;;2.00;;
74170;SDS011;62526;50.948;6.590;2023-04-25T11:01:03;7.35;;;2.12;;
74170;SDS011;62526;50.948;6.590;2023-04-25T11:03:30;6.20;;;2.70;;
74170;SDS011;62526;50.948;6.590;2023-04-25T11:05:57;8.43;;;2.27;;
74170;SDS011;62526;50.948;6.590;2023-04-25T11:08:27;11.32;;;2.55;;
74170;SDS011;62526;50.948;6.590;2023-04-25T11:10:50;6.22;;;2.35;;
74170;SDS011;62526;50.948;6.590;2023-04-25T11:13:16;12.32;;;2.83;;
74170;SDS011;62526;50.948;6.590;2023-04-25T11:15:43;5.62;;;1.98;;
74170;SDS011;62526;50.948;6.590;2023-04-25T11:18:10;7.45;;;2.28;;
74170;SDS011;62526;50.948;6.590;2023-04-25T11:20:36;6.22;;;2.25;;
74170;SDS011;62526;50.948;6.590;2023-04-25T11:23:04;4.87;;;2.00;;
74170;SDS011;62526;50.948;6.590;2023-04-25T11:25:29;6.68;;;2.17;;
74170;SDS011;62526;50.948;6.590;2023-04-25T11:27:57;4.60;;;1.87;;
74170;SDS011;62526;50.948;6.590;2023-04-25T11:30:23;7.50;;;2.20;;
74170;SDS011;62526;50.948;6.590;2023-04-25T11:32:49;7.55;;;2.17;;
74170;SDS011;62526;50.948;6.590;2023-04-25T11:35:16;9.88;;;2.58;;
74170;SDS011;62526;50.948;6.590;2023-04-25T11:37:43;4.40;;;2.20;;
74170;SDS011;62526;50.948;6.590;2023-04-25T11:40:10;6.05;;;2.53;;
74170;SDS011;62526;50.948;6.590;2023-04-25T11:42:37;5.60;;;2.50;;
74170;SDS011;62526;50.948;6.590;2023-04-25T11:45:04;11.50;;;2.47;;
74170;SDS011;62526;50.948;6.590;2023-04-25T11:47:31;7.55;;;2.33;;
74170;SDS011;62526;50.948;6.590;2023-04-25T11:49:58;7.45;;;2.30;;
74170;SDS011;62526;50.948;6.590;2023-04-25T11:52:57;4.20;;;2.50;;
74170;SDS011;62526;50.948;6.590;2023-04-25T11:55:09;8.77;;;2.35;;
74170;SDS011;62526;50.948;6.590;2023-04-25T11:57:37;8.63;;;2.25;;
74170;SDS011;62526;50.948;6.590;2023-04-25T12:00:08;8.10;;;2.70;;
74170;SDS011;62526;50.948;6.590;2023-04-25T12:02:37;9.35;;;1.92;;
74170;SDS011;62526;50.948;6.590;2023-04-25T12:05:06;8.75;;;2.72;;
74170;SDS011;62526;50.948;6.590;2023-04-25T12:07:33;6.32;;;2.25;;
74170;SDS011;62526;50.948;6.590;2023-04-25T12:10:03;8.55;;;2.45;;
74170;SDS011;62526;50.948;6.590;2023-04-25T12:12:27;7.20;;;2.60;;
74170;SDS011;62526;50.948;6.590;2023-04-25T12:14:53;9.57;;;2.60;;
74170;SDS011;62526;50.948;6.590;2023-04-25T12:17:20;4.35;;;1.50;;
74170;SDS011;62526;50.948;6.590;2023-04-25T12:19:47;10.25;;;2.10;;
74170;SDS011;62526;50.948;6.590;2023-04-25T12:22:19;3.72;;;2.00;;
74170;SDS011;62526;50.948;6.590;2023-04-25T12:24:45;5.78;;;2.20;;
74170;SDS011;62526;50.948;6.590;2023-04-25T12:27:13;5.40;;;1.62;;
74170;SDS011;62526;50.948;6.590;2023-04-25T12:29:38;2.08;;;1.58;;
74170;SDS011;62526;50.948;6.590;2023-04-25T12:32:05;3.92;;;2.00;;
74170;SDS011;62526;50.948;6.590;2023-04-25T12:34:31;5.68;;;2.00;;
74170;SDS011;62526;50.948;6.590;2023-04-25T12:36:58;7.72;;;2.10;;
74170;SDS011;62526;50.948;6.590;2023-04-25T12:39:25;5.03;;;1.90;;
74170;SDS011;62526;50.948;6.590;2023-04-25T12:41:52;6.40;;;1.98;;
74170;SDS011;62526;50.948;6.590;2023-04-25T12:44:19;5.95;;;2.37;;
74170;SDS011;62526;50.948;6.590;2023-04-25T12:46:46;7.82;;;2.40;;
74170;SDS011;62526;50.948;6.590;2023-04-25T12:49:12;9.23;;;2.90;;
74170;SDS011;62526;50.948;6.590;2023-04-25T12:51:39;8.70;;;2.28;;
74170;SDS011;62526;50.948;6.590;2023-04-25T12:54:05;7.57;;;2.17;;
74170;SDS011;62526;50.948;6.590;2023-04-25T12:56:32;4.57;;;1.70;;
74170;SDS011;62526;50.948;6.590;2023-04-25T12:58:58;4.47;;;2.33;;
74170;SDS011;62526;50.948;6.590;2023-04-25T13:01:25;10.47;;;2.33;;
74170;SDS011;62526;50.948;6.590;2023-04-25T13:03:52;5.23;;;2.67;;
74170;SDS011;62526;50.948;6.590;2023-04-25T13:06:19;12.35;;;2.87;;
74170;SDS011;62526;50.948;6.590;2023-04-25T13:08:45;9.73;;;3.22;;
74170;SDS011;62526;50.948;6.590;2023-04-25T13:11:12;13.02;;;2.92;;
74170;SDS011;62526;50.948;6.590;2023-04-25T13:13:38;3.78;;;1.85;;
74170;SDS011;62526;50.948;6.590;2023-04-25T13:16:07;6.70;;;2.03;;
74170;SDS011;62526;50.948;6.590;2023-04-25T13:18:34;4.03;;;1.80;;
74170;SDS011;62526;50.948;6.590;2023-04-25T13:21:01;6.97;;;2.25;;
74170;SDS011;62526;50.948;6.590;2023-04-25T13:23:28;6.00;;;2.45;;
74170;SDS011;62526;50.948;6.590;2023-04-25T13:25:54;5.15;;;2.15;;
74170;SDS011;62526;50.948;6.590;2023-04-25T13:28:21;6.22;;;2.08;;
74170;SDS011;62526;50.948;6.590;2023-04-25T13:30:47;3.58;;;1.65;;
74170;SDS011;62526;50.948;6.590;2023-04-25T13:33:14;4.50;;;2.00;;
74170;SDS011;62526;50.948;6.590;2023-04-25T13:35:41;7.80;;;2.15;;
74170;SDS011;62526;50.948;6.590;2023-04-25T13:38:07;6.55;;;2.10;;
74170;SDS011;62526;50.948;6.590;2023-04-25T13:40:34;5.03;;;2.10;;
74170;SDS011;62526;50.948;6.590;2023-04-25T13:43:01;2.70;;;1.62;;
74170;SDS011;62526;50.948;6.590;2023-04-25T13:45:27;4.85;;;2.00;;
74170;SDS011;62526;50.948;6.590;2023-04-25T13:47:53;5.05;;;1.92;;
74170;SDS011;62526;50.948;6.590;2023-04-25T13:50:20;1.87;;;1.40;;
74170;SDS011;62526;50.948;6.590;2023-04-25T13:52:47;4.82;;;1.98;;
74170;SDS011;62526;50.948;6.590;2023-04-25T13:55:13;3.42;;;1.58;;
74170;SDS011;62526;50.948;6.590;2023-04-25T13:57:40;3.92;;;1.70;;
74170;SDS011;62526;50.948;6.590;2023-04-25T14:00:07;6.05;;;1.73;;
74170;SDS011;62526;50.948;6.590;2023-04-25T14:02:35;2.72;;;1.50;;
74170;SDS011;62526;50.948;6.590;2023-04-25T14:05:02;4.22;;;1.73;;
74170;SDS011;62526;50.948;6.590;2023-04-25T14:07:28;6.12;;;1.83;;
74170;SDS011;62526;50.948;6.590;2023-04-25T14:09:55;5.03;;;2.12;;
74170;SDS011;62526;50.948;6.590;2023-04-25T14:12:21;6.22;;;1.52;;
74170;SDS011;62526;50.948;6.590;2023-04-25T14:14:48;8.90;;;1.98;;
74170;SDS011;62526;50.948;6.590;2023-04-25T14:17:14;9.52;;;2.08;;
74170;SDS011;62526;50.948;6.590;2023-04-25T14:19:41;9.68;;;2.20;;
74170;SDS011;62526;50.948;6.590;2023-04-25T14:22:09;6.68;;;2.33;;
74170;SDS011;62526;50.948;6.590;2023-04-25T14:24:35;8.88;;;2.00;;
74170;SDS011;62526;50.948;6.590;2023-04-25T14:27:02;4.78;;;1.95;;
74170;SDS011;62526;50.948;6.590;2023-04-25T14:29:28;6.12;;;2.70;;
74170;SDS011;62526;50.948;6.590;2023-04-25T14:31:55;4.90;;;1.77;;
74170;SDS011;62526;50.948;6.590;2023-04-25T14:34:22;8.52;;;1.70;;
74170;SDS011;62526;50.948;6.590;2023-04-25T14:36:48;4.15;;;1.55;;
74170;SDS011;62526;50.948;6.590;2023-04-25T14:39:15;5.70;;;1.73;;
74170;SDS011;62526;50.948;6.590;2023-04-25T14:41:42;3.92;;;1.37;;
74170;SDS011;62526;50.948;6.590;2023-04-25T14:44:09;4.45;;;1.37;;
74170;SDS011;62526;50.948;6.590;2023-04-25T14:46:36;4.12;;;1.85;;
74170;SDS011;62526;50.948;6.590;2023-04-25T14:49:02;5.78;;;2.12;;